sensor_id;sensor_type;location;lat;lon;timestamp;P1;durP1;ratioP1;P2;durP2;ratioP2
16522;SDS011;19889;52.546;13.348;2023-09-19T00:00:28;3.70;;;1.75;;
16522;SDS011;19889;52.546;13.348;2023-09-19T00:02:55;2.20;;;1.85;;
16522;SDS011;19889;52.546;13.348;2023-09-19T00:05:24;3.08;;;1.52;;
16522;SDS011;19889;52.546;13.348;2023-09-19T00:07:53;4.35;;;1.90;;
16522;SDS011;19889;52.546;13.348;2023-09-19T00:10:20;3.88;;;1.70;;
16522;SDS011;19889;52.546;13.348;2023-09-19T00:12:49;3.58;;;1.38;;
16522;SDS011;19889;52.546;13.348;2023-09-19T00:15:18;1.50;;;1.40;;
16522;SDS011;19889;52.546;13.348;2023-09-19T00:17:46;2.92;;;1.77;;
16522;SDS011;19889;52.546;13.348;2023-09-19T00:20:14;4.85;;;1.60;;
16522;SDS011;19889;52.546;13.348;2023-09-19T00:22:42;2.47;;;1.80;;
16522;SDS011;19889;52.546;13.348;2023-09-19T00:25:10;3.33;;;1.80;;
16522;SDS011;19889;52.546;13.348;2023-09-19T00:27:40;1.80;;;1.50;;
16522;SDS011;19889;52.546;13.348;2023-09-19T00:30:09;2.75;;;1.65;;
16522;SDS011;19889;52.546;13.348;2023-09-19T00:32:41;2.72;;;1.80;;
16522;SDS011;19889;52.546;13.348;2023-09-19T00:35:09;2.65;;;1.58;;
16522;SDS011;19889;52.546;13.348;2023-09-19T00:37:37;3.28;;;1.98;;
16522;SDS011;19889;52.546;13.348;2023-09-19T00:40:05;1.75;;;1.63;;
16522;SDS011;19889;52.546;13.348;2023-09-19T00:42:36;3.13;;;1.35;;
16522;SDS011;19889;52.546;13.348;2023-09-19T00:45:04;2.45;;;1.70;;
16522;SDS011;19889;52.546;13.348;2023-09-19T00:47:35;2.22;;;1.52;;
16522;SDS011;19889;52.546;13.348;2023-09-19T00:50:03;1.67;;;1.42;;
16522;SDS011;19889;52.546;13.348;2023-09-19T00:52:35;3.78;;;1.40;;
16522;SDS011;19889;52.546;13.348;2023-09-19T00:55:04;3.25;;;1.80;;
16522;SDS011;19889;52.546;13.348;2023-09-19T00:57:33;2.33;;;1.75;;
16522;SDS011;19889;52.546;13.348;2023-09-19T01:00:01;3.97;;;1.67;;
16522;SDS011;19889;52.546;13.348;2023-09-19T01:02:33;1.83;;;1.30;;
16522;SDS011;19889;52.546;13.348;2023-09-19T01:05:00;1.83;;;1.52;;
16522;SDS011;19889;52.546;13.348;2023-09-19T01:07:30;2.08;;;1.45;;
16522;SDS011;19889;52.546;13.348;2023-09-19T01:10:00;2.75;;;1.92;;
16522;SDS011;19889;52.546;13.348;2023-09-19T01:12:32;1.60;;;1.50;;
16522;SDS011;19889;52.546;13.348;2023-09-19T01:15:12;2.95;;;1.58;;
16522;SDS011;19889;52.546;13.348;2023-09-19T01:17:49;3.45;;;1.50;;
16522;SDS011;19889;52.546;13.348;2023-09-19T01:20:26;3.25;;;1.70;;
16522;SDS011;19889;52.546;13.348;2023-09-19T01:23:05;4.00;;;1.77;;
16522;SDS011;19889;52.546;13.348;2023-09-19T01:25:47;3.70;;;1.58;;
16522;SDS011;19889;52.546;13.348;2023-09-19T01:28:31;3.22;;;1.42;;
16522;SDS011;19889;52.546;13.348;2023-09-19T01:31:03;2.83;;;1.60;;
16522;SDS011;19889;52.546;13.348;2023-09-19T01:36:22;1.40;;;1.30;;
16522;SDS011;19889;52.546;13.348;2023-09-19T01:38:50;1.67;;;1.50;;
16522;SDS011;19889;52.546;13.348;2023-09-19T01:41:21;3.05;;;1.70;;
16522;SDS011;19889;52.546;13.348;2023-09-19T01:43:53;2.92;;;1.35;;
16522;SDS011;19889;52.546;13.348;2023-09-19T01:46:24;3.05;;;1.67;;
16522;SDS011;19889;52.546;13.348;2023-09-19T01:48:59;2.88;;;1.65;;
16522;SDS011;19889;52.546;13.348;2023-09-19T01:51:37;3.53;;;1.70;;
16522;SDS011;19889;52.546;13.348;2023-09-19T01:54:12;2.88;;;1.77;;
16522;SDS011;19889;52.546;13.348;2023-09-19T01:56:45;2.22;;;1.63;;
16522;SDS011;19889;52.546;13.348;2023-09-19T01:59:17;1.40;;;1.30;;
16522;SDS011;19889;52.546;13.348;2023-09-19T02:01:54;2.17;;;1.38;;
16522;SDS011;19889;52.546;13.348;2023-09-19T02:04:21;4.95;;;1.83;;
16522;SDS011;19889;52.546;13.348;2023-09-19T02:06:50;3.22;;;1.60;;
16522;SDS011;19889;52.546;13.348;2023-09-19T02:09:17;1.45;;;1.20;;
16522;SDS011;19889;52.546;13.348;2023-09-19T02:11:44;2.55;;;1.52;;
16522;SDS011;19889;52.546;13.348;2023-09-19T02:14:11;3.17;;;1.73;;
16522;SDS011;19889;52.546;13.348;2023-09-19T02:16:40;5.90;;;1.80;;
16522;SDS011;19889;52.546;13.348;2023-09-19T02:19:09;2.83;;;1.58;;
16522;SDS011;19889;52.546;13.348;2023-09-19T02:21:36;2.95;;;1.45;;
16522;SDS011;19889;52.546;13.348;2023-09-19T02:24:05;1.60;;;1.35;;
16522;SDS011;19889;52.546;13.348;2023-09-19T02:26:35;3.20;;;1.80;;
16522;SDS011;19889;52.546;13.348;2023-09-19T02:29:02;2.88;;;1.70;;
16522;SDS011;19889;52.546;13.348;2023-09-19T02:31:30;4.07;;;2.13;;
16522;SDS011;19889;52.546;13.348;2023-09-19T02:33:57;4.72;;;1.63;;
16522;SDS011;19889;52.546;13.348;2023-09-19T02:36:26;3.83;;;1.50;;
16522;SDS011;19889;52.546;13.348;2023-09-19T02:38:56;3.05;;;1.60;;
16522;SDS011;19889;52.546;13.348;2023-09-19T02:41:23;3.17;;;1.88;;
16522;SDS011;19889;52.546;13.348;2023-09-19T02:43:50;2.00;;;1.52;;
16522;SDS011;19889;52.546;13.348;2023-09-19T02:46:19;4.68;;;1.60;;
16522;SDS011;19889;52.546;13.348;2023-09-19T02:48:46;2.30;;;1.67;;
16522;SDS011;19889;52.546;13.348;2023-09-19T02:51:13;3.35;;;1.75;;
16522;SDS011;19889;52.546;13.348;2023-09-19T02:53:42;2.03;;;1.67;;
16522;SDS011;19889;52.546;13.348;2023-09-19T02:56:10;2.22;;;1.70;;
16522;SDS011;19889;52.546;13.348;2023-09-19T02:58:38;1.33;;;1.20;;
16522;SDS011;19889;52.546;13.348;2023-09-19T03:01:09;1.75;;;1.50;;
16522;SDS011;19889;52.546;13.348;2023-09-19T03:03:37;3.88;;;1.50;;
16522;SDS011;19889;52.546;13.348;2023-09-19T03:06:06;2.38;;;1.35;;
16522;SDS011;19889;52.546;13.348;2023-09-19T03:08:34;2.60;;;1.60;;
16522;SDS011;19889;52.546;13.348;2023-09-19T03:11:04;3.20;;;1.70;;
16522;SDS011;19889;52.546;13.348;2023-09-19T03:13:33;3.45;;;2.00;;
16522;SDS011;19889;52.546;13.348;2023-09-19T03:16:03;3.85;;;2.15;;
16522;SDS011;19889;52.546;13.348;2023-09-19T03:18:31;2.10;;;1.67;;
16522;SDS011;19889;52.546;13.348;2023-09-19T03:21:00;4.88;;;1.50;;
16522;SDS011;19889;52.546;13.348;2023-09-19T03:23:28;1.77;;;1.23;;
16522;SDS011;19889;52.546;13.348;2023-09-19T03:25:56;2.83;;;1.30;;
16522;SDS011;19889;52.546;13.348;2023-09-19T03:28:26;2.85;;;1.63;;
16522;SDS011;19889;52.546;13.348;2023-09-19T03:30:58;4.00;;;1.50;;
16522;SDS011;19889;52.546;13.348;2023-09-19T03:33:27;2.33;;;1.17;;
16522;SDS011;19889;52.546;13.348;2023-09-19T03:35:57;1.65;;;1.35;;
16522;SDS011;19889;52.546;13.348;2023-09-19T03:38:24;2.33;;;1.40;;
16522;SDS011;19889;52.546;13.348;2023-09-19T03:40:52;1.27;;;1.15;;
16522;SDS011;19889;52.546;13.348;2023-09-19T03:43:19;2.53;;;1.20;;
16522;SDS011;19889;52.546;13.348;2023-09-19T03:45:48;3.13;;;1.33;;
16522;SDS011;19889;52.546;13.348;2023-09-19T03:48:17;1.42;;;1.33;;
16522;SDS011;19889;52.546;13.348;2023-09-19T03:50:45;1.25;;;1.15;;
16522;SDS011;19889;52.546;13.348;2023-09-19T03:53:12;1.30;;;1.17;;
16522;SDS011;19889;52.546;13.348;2023-09-19T03:55:40;1.73;;;1.33;;
16522;SDS011;19889;52.546;13.348;2023-09-19T03:58:07;2.20;;;1.70;;
16522;SDS011;19889;52.546;13.348;2023-09-19T04:00:34;1.13;;;1.02;;
16522;SDS011;19889;52.546;13.348;2023-09-19T04:03:03;1.70;;;1.00;;
16522;SDS011;19889;52.546;13.348;2023-09-19T04:05:32;2.55;;;1.08;;
16522;SDS011;19889;52.546;13.348;2023-09-19T04:07:59;2.25;;;1.08;;
16522;SDS011;19889;52.546;13.348;2023-09-19T04:10:26;2.45;;;1.33;;
16522;SDS011;19889;52.546;13.348;2023-09-19T04:12:54;1.95;;;1.15;;
16522;SDS011;19889;52.546;13.348;2023-09-19T04:15:23;1.35;;;1.05;;
16522;SDS011;19889;52.546;13.348;2023-09-19T04:17:53;1.17;;;1.05;;
16522;SDS011;19889;52.546;13.348;2023-09-19T04:20:21;1.50;;;1.08;;
16522;SDS011;19889;52.546;13.348;2023-09-19T04:22:49;1.98;;;1.23;;
16522;SDS011;19889;52.546;13.348;2023-09-19T04:25:16;2.45;;;1.08;;
16522;SDS011;19889;52.546;13.348;2023-09-19T04:27:44;1.33;;;1.10;;
16522;SDS011;19889;52.546;13.348;2023-09-19T04:30:11;1.58;;;1.20;;
16522;SDS011;19889;52.546;13.348;2023-09-19T04:32:40;2.22;;;1.60;;
16522;SDS011;19889;52.546;13.348;2023-09-19T04:35:07;1.27;;;1.00;;
16522;SDS011;19889;52.546;13.348;2023-09-19T04:37:38;1.75;;;1.30;;
16522;SDS011;19889;52.546;13.348;2023-09-19T04:40:07;2.03;;;1.38;;
16522;SDS011;19889;52.546;13.348;2023-09-19T04:42:39;2.42;;;1.33;;
16522;SDS011;19889;52.546;13.348;2023-09-19T04:45:07;3.55;;;1.70;;
16522;SDS011;19889;52.546;13.348;2023-09-19T04:47:36;2.50;;;1.48;;
16522;SDS011;19889;52.546;13.348;2023-09-19T04:50:05;4.68;;;1.50;;
16522;SDS011;19889;52.546;13.348;2023-09-19T04:52:39;3.03;;;1.55;;
16522;SDS011;19889;52.546;13.348;2023-09-19T04:55:09;1.75;;;1.50;;
16522;SDS011;19889;52.546;13.348;2023-09-19T04:57:42;3.30;;;1.83;;
16522;SDS011;19889;52.546;13.348;2023-09-19T05:00:11;5.57;;;1.45;;
16522;SDS011;19889;52.546;13.348;2023-09-19T05:02:40;1.85;;;1.52;;
16522;SDS011;19889;52.546;13.348;2023-09-19T05:05:08;3.10;;;1.40;;
16522;SDS011;19889;52.546;13.348;2023-09-19T05:07:36;3.70;;;1.48;;
16522;SDS011;19889;52.546;13.348;2023-09-19T05:10:07;3.50;;;1.50;;
16522;SDS011;19889;52.546;13.348;2023-09-19T05:12:35;3.25;;;1.50;;
16522;SDS011;19889;52.546;13.348;2023-09-19T05:15:02;2.45;;;1.20;;
16522;SDS011;19889;52.546;13.348;2023-09-19T05:17:32;2.90;;;1.52;;
16522;SDS011;19889;52.546;13.348;2023-09-19T05:19:59;3.42;;;1.40;;
16522;SDS011;19889;52.546;13.348;2023-09-19T05:22:40;2.53;;;1.52;;
16522;SDS011;19889;52.546;13.348;2023-09-19T05:25:09;3.05;;;1.75;;
16522;SDS011;19889;52.546;13.348;2023-09-19T05:27:41;2.40;;;1.45;;
16522;SDS011;19889;52.546;13.348;2023-09-19T05:30:08;1.73;;;1.27;;
16522;SDS011;19889;52.546;13.348;2023-09-19T05:32:39;2.10;;;1.23;;
16522;SDS011;19889;52.546;13.348;2023-09-19T05:35:06;1.42;;;1.30;;
16522;SDS011;19889;52.546;13.348;2023-09-19T05:37:34;3.22;;;1.33;;
16522;SDS011;19889;52.546;13.348;2023-09-19T05:40:03;2.10;;;1.13;;
16522;SDS011;19889;52.546;13.348;2023-09-19T05:42:37;4.28;;;1.45;;
16522;SDS011;19889;52.546;13.348;2023-09-19T05:45:05;2.60;;;1.52;;
16522;SDS011;19889;52.546;13.348;2023-09-19T05:47:33;4.90;;;1.70;;
16522;SDS011;19889;52.546;13.348;2023-09-19T05:50:00;2.70;;;2.00;;
16522;SDS011;19889;52.546;13.348;2023-09-19T05:52:28;3.83;;;2.15;;
16522;SDS011;19889;52.546;13.348;2023-09-19T05:54:55;2.78;;;2.22;;
16522;SDS011;19889;52.546;13.348;2023-09-19T05:57:23;3.58;;;2.38;;
16522;SDS011;19889;52.546;13.348;2023-09-19T05:59:51;4.10;;;1.58;;
16522;SDS011;19889;52.546;13.348;2023-09-19T06:02:18;2.85;;;1.52;;
16522;SDS011;19889;52.546;13.348;2023-09-19T06:04:46;6.18;;;3.15;;
16522;SDS011;19889;52.546;13.348;2023-09-19T06:07:13;3.45;;;2.20;;
16522;SDS011;19889;52.546;13.348;2023-09-19T06:09:41;4.68;;;2.47;;
16522;SDS011;19889;52.546;13.348;2023-09-19T06:12:09;3.10;;;1.67;;
16522;SDS011;19889;52.546;13.348;2023-09-19T06:14:39;3.03;;;1.65;;
16522;SDS011;19889;52.546;13.348;2023-09-19T06:17:08;2.97;;;1.80;;
16522;SDS011;19889;52.546;13.348;2023-09-19T06:19:35;4.68;;;1.75;;
16522;SDS011;19889;52.546;13.348;2023-09-19T06:22:03;2.63;;;1.60;;
16522;SDS011;19889;52.546;13.348;2023-09-19T06:24:30;2.85;;;1.63;;
16522;SDS011;19889;52.546;13.348;2023-09-19T06:26:57;3.40;;;1.52;;
16522;SDS011;19889;52.546;13.348;2023-09-19T06:29:26;5.25;;;1.58;;
16522;SDS011;19889;52.546;13.348;2023-09-19T06:31:53;6.45;;;1.80;;
16522;SDS011;19889;52.546;13.348;2023-09-19T06:34:22;4.22;;;1.58;;
16522;SDS011;19889;52.546;13.348;2023-09-19T06:36:51;4.38;;;3.08;;
16522;SDS011;19889;52.546;13.348;2023-09-19T06:39:24;5.72;;;2.05;;
16522;SDS011;19889;52.546;13.348;2023-09-19T06:41:51;4.07;;;1.77;;
16522;SDS011;19889;52.546;13.348;2023-09-19T06:44:19;7.32;;;1.75;;
16522;SDS011;19889;52.546;13.348;2023-09-19T06:46:47;3.03;;;1.95;;
16522;SDS011;19889;52.546;13.348;2023-09-19T06:49:15;3.70;;;2.03;;
16522;SDS011;19889;52.546;13.348;2023-09-19T06:51:43;2.83;;;1.52;;
16522;SDS011;19889;52.546;13.348;2023-09-19T06:54:11;4.55;;;1.73;;
16522;SDS011;19889;52.546;13.348;2023-09-19T06:56:38;3.95;;;1.75;;
16522;SDS011;19889;52.546;13.348;2023-09-19T06:59:06;2.17;;;1.67;;
16522;SDS011;19889;52.546;13.348;2023-09-19T07:01:34;3.42;;;1.80;;
16522;SDS011;19889;52.546;13.348;2023-09-19T07:04:03;6.53;;;2.42;;
16522;SDS011;19889;52.546;13.348;2023-09-19T07:06:30;4.40;;;2.10;;
16522;SDS011;19889;52.546;13.348;2023-09-19T07:08:59;3.03;;;1.80;;
16522;SDS011;19889;52.546;13.348;2023-09-19T07:11:27;2.10;;;1.48;;
16522;SDS011;19889;52.546;13.348;2023-09-19T07:13:56;4.00;;;2.00;;
16522;SDS011;19889;52.546;13.348;2023-09-19T07:16:24;4.45;;;2.33;;
16522;SDS011;19889;52.546;13.348;2023-09-19T07:18:54;10.52;;;2.88;;
16522;SDS011;19889;52.546;13.348;2023-09-19T07:21:22;3.33;;;1.83;;
16522;SDS011;19889;52.546;13.348;2023-09-19T07:23:50;4.00;;;1.70;;
16522;SDS011;19889;52.546;13.348;2023-09-19T07:26:18;2.38;;;1.55;;
16522;SDS011;19889;52.546;13.348;2023-09-19T07:28:45;5.65;;;1.50;;
16522;SDS011;19889;52.546;13.348;2023-09-19T07:31:13;2.45;;;1.33;;
16522;SDS011;19889;52.546;13.348;2023-09-19T07:33:42;5.35;;;1.77;;
16522;SDS011;19889;52.546;13.348;2023-09-19T07:36:10;2.10;;;1.25;;
16522;SDS011;19889;52.546;13.348;2023-09-19T07:38:39;3.50;;;1.73;;
16522;SDS011;19889;52.546;13.348;2023-09-19T07:41:06;2.85;;;1.80;;
16522;SDS011;19889;52.546;13.348;2023-09-19T07:43:35;3.42;;;1.77;;
16522;SDS011;19889;52.546;13.348;2023-09-19T07:46:04;2.80;;;2.00;;
16522;SDS011;19889;52.546;13.348;2023-09-19T07:48:34;4.55;;;1.90;;
16522;SDS011;19889;52.546;13.348;2023-09-19T07:51:03;5.20;;;2.20;;
16522;SDS011;19889;52.546;13.348;2023-09-19T07:53:31;4.03;;;1.92;;
16522;SDS011;19889;52.546;13.348;2023-09-19T07:56:03;3.90;;;1.92;;
16522;SDS011;19889;52.546;13.348;2023-09-19T07:58:31;5.63;;;2.63;;
16522;SDS011;19889;52.546;13.348;2023-09-19T08:01:05;4.25;;;2.38;;
16522;SDS011;19889;52.546;13.348;2023-09-19T08:03:33;3.47;;;1.90;;
16522;SDS011;19889;52.546;13.348;2023-09-19T08:06:05;5.05;;;2.10;;
16522;SDS011;19889;52.546;13.348;2023-09-19T08:08:32;3.20;;;1.80;;
16522;SDS011;19889;52.546;13.348;2023-09-19T08:11:02;3.55;;;1.73;;
16522;SDS011;19889;52.546;13.348;2023-09-19T08:13:35;4.72;;;1.90;;
16522;SDS011;19889;52.546;13.348;2023-09-19T08:16:08;2.75;;;1.60;;
16522;SDS011;19889;52.546;13.348;2023-09-19T08:18:35;5.72;;;3.50;;
16522;SDS011;19889;52.546;13.348;2023-09-19T08:21:03;4.28;;;2.05;;
16522;SDS011;19889;52.546;13.348;2023-09-19T08:23:30;3.20;;;2.10;;
16522;SDS011;19889;52.546;13.348;2023-09-19T08:25:58;3.25;;;1.92;;
16522;SDS011;19889;52.546;13.348;2023-09-19T08:28:28;4.65;;;1.83;;
16522;SDS011;19889;52.546;13.348;2023-09-19T08:30:55;3.63;;;2.03;;
16522;SDS011;19889;52.546;13.348;2023-09-19T08:33:28;3.60;;;2.20;;
16522;SDS011;19889;52.546;13.348;2023-09-19T08:35:56;2.45;;;1.98;;
16522;SDS011;19889;52.546;13.348;2023-09-19T08:38:23;3.92;;;1.83;;
16522;SDS011;19889;52.546;13.348;2023-09-19T08:40:56;5.07;;;2.35;;
16522;SDS011;19889;52.546;13.348;2023-09-19T08:43:25;3.90;;;2.08;;
16522;SDS011;19889;52.546;13.348;2023-09-19T08:45:53;6.13;;;3.22;;
16522;SDS011;19889;52.546;13.348;2023-09-19T08:48:31;4.20;;;2.42;;
16522;SDS011;19889;52.546;13.348;2023-09-19T08:51:02;3.65;;;2.20;;
16522;SDS011;19889;52.546;13.348;2023-09-19T08:53:36;4.85;;;2.40;;
16522;SDS011;19889;52.546;13.348;2023-09-19T08:56:11;3.97;;;2.00;;
16522;SDS011;19889;52.546;13.348;2023-09-19T08:58:43;6.07;;;2.10;;
16522;SDS011;19889;52.546;13.348;2023-09-19T09:01:15;5.78;;;2.85;;
16522;SDS011;19889;52.546;13.348;2023-09-19T09:03:49;3.10;;;2.50;;
16522;SDS011;19889;52.546;13.348;2023-09-19T09:06:17;7.30;;;2.30;;
16522;SDS011;19889;52.546;13.348;2023-09-19T09:08:45;6.30;;;2.53;;
16522;SDS011;19889;52.546;13.348;2023-09-19T09:11:13;5.03;;;2.33;;
16522;SDS011;19889;52.546;13.348;2023-09-19T09:13:42;7.03;;;3.22;;
16522;SDS011;19889;52.546;13.348;2023-09-19T09:16:11;4.70;;;2.75;;
16522;SDS011;19889;52.546;13.348;2023-09-19T09:18:39;8.35;;;3.50;;
16522;SDS011;19889;52.546;13.348;2023-09-19T09:21:08;7.78;;;3.42;;
16522;SDS011;19889;52.546;13.348;2023-09-19T09:23:35;7.28;;;4.00;;
16522;SDS011;19889;52.546;13.348;2023-09-19T09:26:04;7.80;;;3.45;;
16522;SDS011;19889;52.546;13.348;2023-09-19T09:28:32;4.28;;;2.50;;
16522;SDS011;19889;52.546;13.348;2023-09-19T09:31:01;6.15;;;2.42;;
16522;SDS011;19889;52.546;13.348;2023-09-19T09:33:33;3.58;;;2.60;;
16522;SDS011;19889;52.546;13.348;2023-09-19T09:36:01;4.85;;;2.20;;
16522;SDS011;19889;52.546;13.348;2023-09-19T09:38:42;5.80;;;2.50;;
16522;SDS011;19889;52.546;13.348;2023-09-19T09:41:10;3.90;;;2.33;;
16522;SDS011;19889;52.546;13.348;2023-09-19T09:43:41;4.35;;;2.70;;
16522;SDS011;19889;52.546;13.348;2023-09-19T09:46:12;5.30;;;2.47;;
16522;SDS011;19889;52.546;13.348;2023-09-19T09:49:10;4.43;;;3.13;;
16522;SDS011;19889;52.546;13.348;2023-09-19T09:51:59;6.47;;;3.05;;
16522;SDS011;19889;52.546;13.348;2023-09-19T09:54:32;7.15;;;2.70;;
16522;SDS011;19889;52.546;13.348;2023-09-19T09:57:02;5.93;;;3.28;;
16522;SDS011;19889;52.546;13.348;2023-09-19T09:59:45;5.28;;;3.38;;
16522;SDS011;19889;52.546;13.348;2023-09-19T10:02:15;9.80;;;5.65;;
16522;SDS011;19889;52.546;13.348;2023-09-19T10:04:49;10.90;;;6.40;;
16522;SDS011;19889;52.546;13.348;2023-09-19T10:07:28;6.03;;;3.75;;
16522;SDS011;19889;52.546;13.348;2023-09-19T10:10:02;4.85;;;2.90;;
16522;SDS011;19889;52.546;13.348;2023-09-19T10:12:44;11.27;;;5.68;;
16522;SDS011;19889;52.546;13.348;2023-09-19T10:15:14;11.95;;;7.47;;
16522;SDS011;19889;52.546;13.348;2023-09-19T10:17:45;10.32;;;4.97;;
16522;SDS011;19889;52.546;13.348;2023-09-19T10:20:16;8.38;;;3.95;;
16522;SDS011;19889;52.546;13.348;2023-09-19T10:22:59;6.63;;;2.83;;
16522;SDS011;19889;52.546;13.348;2023-09-19T10:25:28;5.28;;;3.17;;
16522;SDS011;19889;52.546;13.348;2023-09-19T10:27:57;6.57;;;3.83;;
16522;SDS011;19889;52.546;13.348;2023-09-19T10:30:29;6.05;;;4.68;;
16522;SDS011;19889;52.546;13.348;2023-09-19T10:33:00;7.68;;;3.60;;
16522;SDS011;19889;52.546;13.348;2023-09-19T10:35:28;6.15;;;2.92;;
16522;SDS011;19889;52.546;13.348;2023-09-19T10:37:57;4.97;;;2.47;;
16522;SDS011;19889;52.546;13.348;2023-09-19T10:40:29;7.22;;;3.35;;
16522;SDS011;19889;52.546;13.348;2023-09-19T10:43:00;6.65;;;3.33;;
16522;SDS011;19889;52.546;13.348;2023-09-19T10:45:32;8.75;;;3.35;;
16522;SDS011;19889;52.546;13.348;2023-09-19T10:48:01;5.38;;;2.70;;
16522;SDS011;19889;52.546;13.348;2023-09-19T10:50:31;4.13;;;3.60;;
16522;SDS011;19889;52.546;13.348;2023-09-19T10:53:02;5.93;;;2.70;;
16522;SDS011;19889;52.546;13.348;2023-09-19T10:55:34;6.63;;;2.42;;
16522;SDS011;19889;52.546;13.348;2023-09-19T10:58:03;6.78;;;2.53;;
16522;SDS011;19889;52.546;13.348;2023-09-19T11:00:52;3.63;;;2.00;;
16522;SDS011;19889;52.546;13.348;2023-09-19T11:03:21;4.78;;;2.47;;
16522;SDS011;19889;52.546;13.348;2023-09-19T11:08:57;5.40;;;2.47;;
16522;SDS011;19889;52.546;13.348;2023-09-19T11:11:50;8.43;;;2.45;;
16522;SDS011;19889;52.546;13.348;2023-09-19T11:14:41;5.50;;;1.85;;
16522;SDS011;19889;52.546;13.348;2023-09-19T11:25:50;4.95;;;2.50;;
16522;SDS011;19889;52.546;13.348;2023-09-19T11:28:29;4.47;;;2.28;;
16522;SDS011;19889;52.546;13.348;2023-09-19T11:30:57;5.05;;;2.25;;
16522;SDS011;19889;52.546;13.348;2023-09-19T11:33:25;4.78;;;2.03;;
16522;SDS011;19889;52.546;13.348;2023-09-19T11:35:59;3.83;;;1.85;;
16522;SDS011;19889;52.546;13.348;2023-09-19T11:41:39;5.45;;;2.13;;
16522;SDS011;19889;52.546;13.348;2023-09-19T11:47:04;5.72;;;1.80;;
16522;SDS011;19889;52.546;13.348;2023-09-19T11:49:32;5.15;;;1.92;;
16522;SDS011;19889;52.546;13.348;2023-09-19T11:52:02;4.63;;;1.90;;
16522;SDS011;19889;52.546;13.348;2023-09-19T11:54:32;3.78;;;1.70;;
16522;SDS011;19889;52.546;13.348;2023-09-19T11:56:59;7.28;;;2.58;;
16522;SDS011;19889;52.546;13.348;2023-09-19T11:59:28;4.63;;;2.00;;
16522;SDS011;19889;52.546;13.348;2023-09-19T12:01:57;5.47;;;2.08;;
16522;SDS011;19889;52.546;13.348;2023-09-19T12:04:33;4.60;;;1.73;;
16522;SDS011;19889;52.546;13.348;2023-09-19T12:07:04;5.20;;;1.83;;
16522;SDS011;19889;52.546;13.348;2023-09-19T12:09:38;4.47;;;2.00;;
16522;SDS011;19889;52.546;13.348;2023-09-19T12:12:09;5.53;;;2.08;;
16522;SDS011;19889;52.546;13.348;2023-09-19T12:14:38;4.30;;;2.22;;
16522;SDS011;19889;52.546;13.348;2023-09-19T12:17:10;5.13;;;2.05;;
16522;SDS011;19889;52.546;13.348;2023-09-19T12:19:38;4.63;;;2.00;;
16522;SDS011;19889;52.546;13.348;2023-09-19T12:22:05;3.97;;;1.73;;
16522;SDS011;19889;52.546;13.348;2023-09-19T12:24:34;4.65;;;1.75;;
16522;SDS011;19889;52.546;13.348;2023-09-19T12:27:04;3.88;;;1.90;;
16522;SDS011;19889;52.546;13.348;2023-09-19T12:29:41;7.38;;;2.03;;
16522;SDS011;19889;52.546;13.348;2023-09-19T12:32:11;5.22;;;1.65;;
16522;SDS011;19889;52.546;13.348;2023-09-19T12:34:42;3.92;;;1.33;;
16522;SDS011;19889;52.546;13.348;2023-09-19T12:37:17;2.70;;;1.70;;
16522;SDS011;19889;52.546;13.348;2023-09-19T12:39:48;3.97;;;1.67;;
16522;SDS011;19889;52.546;13.348;2023-09-19T12:42:21;3.38;;;1.80;;
16522;SDS011;19889;52.546;13.348;2023-09-19T12:44:49;5.18;;;1.88;;
16522;SDS011;19889;52.546;13.348;2023-09-19T12:47:22;4.90;;;1.75;;
16522;SDS011;19889;52.546;13.348;2023-09-19T12:50:06;3.65;;;2.00;;
16522;SDS011;19889;52.546;13.348;2023-09-19T12:52:39;2.80;;;1.40;;
16522;SDS011;19889;52.546;13.348;2023-09-19T12:55:07;4.03;;;1.48;;
16522;SDS011;19889;52.546;13.348;2023-09-19T12:57:36;2.92;;;1.70;;
16522;SDS011;19889;52.546;13.348;2023-09-19T13:00:05;3.35;;;1.80;;
16522;SDS011;19889;52.546;13.348;2023-09-19T13:02:37;3.85;;;1.95;;
16522;SDS011;19889;52.546;13.348;2023-09-19T13:08:31;1.52;;;1.40;;
16522;SDS011;19889;52.546;13.348;2023-09-19T13:11:09;2.80;;;1.20;;
16522;SDS011;19889;52.546;13.348;2023-09-19T13:13:38;2.88;;;1.45;;
16522;SDS011;19889;52.546;13.348;2023-09-19T13:16:08;2.65;;;1.60;;
16522;SDS011;19889;52.546;13.348;2023-09-19T13:18:44;2.42;;;1.63;;
16522;SDS011;19889;52.546;13.348;2023-09-19T13:21:13;4.78;;;2.08;;
16522;SDS011;19889;52.546;13.348;2023-09-19T13:29:46;3.63;;;1.42;;
16522;SDS011;19889;52.546;13.348;2023-09-19T13:32:13;4.40;;;1.60;;
16522;SDS011;19889;52.546;13.348;2023-09-19T13:34:42;4.78;;;2.13;;
16522;SDS011;19889;52.546;13.348;2023-09-19T13:37:09;3.10;;;1.70;;
16522;SDS011;19889;52.546;13.348;2023-09-19T13:39:38;5.15;;;1.60;;
16522;SDS011;19889;52.546;13.348;2023-09-19T13:42:08;3.63;;;1.50;;
16522;SDS011;19889;52.546;13.348;2023-09-19T13:44:37;5.22;;;1.80;;
16522;SDS011;19889;52.546;13.348;2023-09-19T13:47:06;2.53;;;1.50;;
16522;SDS011;19889;52.546;13.348;2023-09-19T13:49:35;3.60;;;1.70;;
16522;SDS011;19889;52.546;13.348;2023-09-19T13:52:05;3.55;;;1.80;;
16522;SDS011;19889;52.546;13.348;2023-09-19T13:54:32;2.25;;;1.50;;
16522;SDS011;19889;52.546;13.348;2023-09-19T13:57:07;5.22;;;1.65;;
16522;SDS011;19889;52.546;13.348;2023-09-19T13:59:35;2.90;;;1.67;;
16522;SDS011;19889;52.546;13.348;2023-09-19T14:02:02;4.75;;;1.70;;
16522;SDS011;19889;52.546;13.348;2023-09-19T14:04:31;2.53;;;1.17;;
16522;SDS011;19889;52.546;13.348;2023-09-19T14:06:59;2.78;;;1.40;;
16522;SDS011;19889;52.546;13.348;2023-09-19T14:09:28;3.45;;;1.70;;
16522;SDS011;19889;52.546;13.348;2023-09-19T14:11:56;2.67;;;1.63;;
16522;SDS011;19889;52.546;13.348;2023-09-19T14:14:23;5.35;;;2.13;;
16522;SDS011;19889;52.546;13.348;2023-09-19T14:16:50;6.63;;;2.30;;
16522;SDS011;19889;52.546;13.348;2023-09-19T14:19:18;3.25;;;2.03;;
16522;SDS011;19889;52.546;13.348;2023-09-19T14:21:46;6.20;;;2.30;;
16522;SDS011;19889;52.546;13.348;2023-09-19T14:24:16;3.38;;;2.00;;
16522;SDS011;19889;52.546;13.348;2023-09-19T14:26:45;3.78;;;1.83;;
16522;SDS011;19889;52.546;13.348;2023-09-19T14:29:12;2.92;;;1.75;;
16522;SDS011;19889;52.546;13.348;2023-09-19T14:31:40;3.17;;;1.60;;
16522;SDS011;19889;52.546;13.348;2023-09-19T14:34:07;2.47;;;1.80;;
16522;SDS011;19889;52.546;13.348;2023-09-19T14:36:35;2.45;;;1.70;;
16522;SDS011;19889;52.546;13.348;2023-09-19T14:39:04;2.95;;;1.45;;
16522;SDS011;19889;52.546;13.348;2023-09-19T14:41:31;1.95;;;1.40;;
16522;SDS011;19889;52.546;13.348;2023-09-19T14:44:01;3.92;;;2.03;;
16522;SDS011;19889;52.546;13.348;2023-09-19T14:46:30;5.55;;;1.75;;
16522;SDS011;19889;52.546;13.348;2023-09-19T14:48:58;2.33;;;1.75;;
16522;SDS011;19889;52.546;13.348;2023-09-19T14:51:29;2.88;;;1.80;;
16522;SDS011;19889;52.546;13.348;2023-09-19T14:53:56;4.43;;;1.73;;
16522;SDS011;19889;52.546;13.348;2023-09-19T14:56:24;4.78;;;1.90;;
16522;SDS011;19889;52.546;13.348;2023-09-19T14:58:51;4.90;;;1.60;;
16522;SDS011;19889;52.546;13.348;2023-09-19T15:01:20;1.60;;;1.35;;
16522;SDS011;19889;52.546;13.348;2023-09-19T15:03:48;3.28;;;1.77;;
16522;SDS011;19889;52.546;13.348;2023-09-19T15:06:15;3.92;;;1.52;;
16522;SDS011;19889;52.546;13.348;2023-09-19T15:08:45;3.17;;;1.60;;
16522;SDS011;19889;52.546;13.348;2023-09-19T15:11:13;3.65;;;1.55;;
16522;SDS011;19889;52.546;13.348;2023-09-19T15:13:42;3.42;;;1.50;;
16522;SDS011;19889;52.546;13.348;2023-09-19T15:16:10;3.65;;;1.65;;
16522;SDS011;19889;52.546;13.348;2023-09-19T15:18:41;2.65;;;1.70;;